createdAt,value
2023-03-28T00:02:10.485Z,86.28
2023-03-28T00:04:37.779Z,79.38
2023-03-28T00:07:05.684Z,78.22
2023-03-28T00:09:33.144Z,80.85
2023-03-28T00:11:59.977Z,77.68
2023-03-28T00:14:26.962Z,79.40
2023-03-28T00:16:55.098Z,80.97
2023-03-28T00:19:21.921Z,78.10
2023-03-28T00:21:51.125Z,82.18
2023-03-28T00:24:21.539Z,86.30
2023-03-28T00:26:54.653Z,76.97
2023-03-28T00:29:22.661Z,76.85
2023-03-28T00:31:50.323Z,78.28
2023-03-28T00:34:18.693Z,79.03
2023-03-28T00:36:45.520Z,78.93
2023-03-28T00:39:13.546Z,78.15
2023-03-28T00:41:43.505Z,78.45
2023-03-28T00:44:45.790Z,78.78
2023-03-28T00:47:20.678Z,77.75
2023-03-28T00:49:50.226Z,77.63
2023-03-28T00:52:17.972Z,78.30
2023-03-28T00:54:46.336Z,77.43
2023-03-28T00:57:16.555Z,76.30
2023-03-28T00:59:44.149Z,77.73
2023-03-28T01:02:11.722Z,76.88
2023-03-28T01:04:49.509Z,78.10
2023-03-28T01:07:21.566Z,77.57
2023-03-28T01:09:49.411Z,76.35
2023-03-28T01:12:19.443Z,75.97
2023-03-28T01:14:47.804Z,74.45
2023-03-28T01:17:16.119Z,75.70
2023-03-28T01:19:59.117Z,77.68
2023-03-28T01:23:10.782Z,77.80
2023-03-28T01:26:21.602Z,76.72
2023-03-28T01:29:11.437Z,79.65
2023-03-28T01:31:59.698Z,77.00
2023-03-28T01:35:36.590Z,76.72
2023-03-28T01:38:14.303Z,77.90
2023-03-28T01:40:50.218Z,76.05
2023-03-28T01:43:30.730Z,78.57
2023-03-28T01:46:05.633Z,79.80
2023-03-28T01:48:45.896Z,76.93
2023-03-28T01:51:24.573Z,79.53
2023-03-28T01:53:58.389Z,79.13
2023-03-28T01:56:31.687Z,78.50
2023-03-28T01:59:07.810Z,77.80
2023-03-28T02:02:04.248Z,77.30
2023-03-28T02:04:33.781Z,78.72
2023-03-28T02:07:02.051Z,75.50
2023-03-28T02:09:38.109Z,77.38
2023-03-28T02:12:25.073Z,76.07
2023-03-28T02:15:09.006Z,75.35
2023-03-28T02:18:00.552Z,82.55
2023-03-28T02:20:53.107Z,78.40
2023-03-28T02:23:43.324Z,77.57
2023-03-28T02:26:42.073Z,77.78
2023-03-28T02:29:28.503Z,76.88
2023-03-28T02:32:11.595Z,77.15
2023-03-28T02:34:40.665Z,76.93
2023-03-28T02:37:16.338Z,77.93
2023-03-28T02:39:57.684Z,77.53
2023-03-28T02:42:54.982Z,81.88
2023-03-28T02:45:40.916Z,81.07
2023-03-28T02:48:21.324Z,86.63
2023-03-28T02:51:00.032Z,79.15
2023-03-28T02:53:33.646Z,80.45
2023-03-28T02:56:06.114Z,77.18
2023-03-28T02:58:56.086Z,76.95
2023-03-28T03:03:52.821Z,76.80
2023-03-28T03:06:20.004Z,77.07
2023-03-28T03:08:47.180Z,76.53
2023-03-28T03:11:14.043Z,79.47
2023-03-28T03:13:42.291Z,77.35
2023-03-28T03:16:10.812Z,75.32
2023-03-28T03:18:37.810Z,75.72
2023-03-28T03:21:05.348Z,76.65
2023-03-28T03:23:32.245Z,77.97
2023-03-28T03:26:00.601Z,76.50
2023-03-28T03:28:34.351Z,77.05
2023-03-28T03:31:04.052Z,77.00
2023-03-28T03:33:55.589Z,76.45
2023-03-28T03:36:30.487Z,76.80
2023-03-28T03:41:26.386Z,75.47
2023-03-28T03:43:53.913Z,79.53
2023-03-28T03:46:22.248Z,78.45
2023-03-28T03:48:50.509Z,76.88
2023-03-28T03:51:19.530Z,78.32
2023-03-28T03:53:50.814Z,77.22
2023-03-28T03:56:21.238Z,82.60
2023-03-28T03:58:57.296Z,77.90
2023-03-28T04:04:09.237Z,75.75
2023-03-28T04:06:59.030Z,76.90
2023-03-28T04:09:27.322Z,79.22
2023-03-28T04:11:59.267Z,78.60
2023-03-28T04:14:26.641Z,77.93
2023-03-28T04:17:09.767Z,76.15
2023-03-28T04:19:40.667Z,79.22
2023-03-28T04:22:09.277Z,76.60
2023-03-28T04:24:37.576Z,78.60
2023-03-28T04:27:34.240Z,77.43
2023-03-28T04:30:01.837Z,76.50
2023-03-28T04:32:50.466Z,77.15
2023-03-28T04:35:24.290Z,80.20
2023-03-28T04:37:53.796Z,79.18
2023-03-28T04:40:21.761Z,80.40
2023-03-28T04:42:59.062Z,77.88
2023-03-28T04:45:33.934Z,86.20
2023-03-28T04:48:11.408Z,108.13
2023-03-28T04:50:39.171Z,104.50
2023-03-28T04:53:07.468Z,104.28
2023-03-28T04:55:35.439Z,97.15
2023-03-28T04:58:16.089Z,93.70
2023-03-28T05:00:44.292Z,89.72
2023-03-28T05:03:46.303Z,105.07
2023-03-28T05:06:13.177Z,92.95
2023-03-28T05:08:41.536Z,96.20
2023-03-28T05:11:08.639Z,103.63
2023-03-28T05:13:36.725Z,108.35
2023-03-28T05:16:19.715Z,109.95
2023-03-28T05:19:22.860Z,109.72
2023-03-28T05:22:15.688Z,105.30
2023-03-28T05:24:44.608Z,109.22
2023-03-28T05:27:20.120Z,104.70
2023-03-28T05:29:47.969Z,105.90
2023-03-28T05:32:14.950Z,111.60
2023-03-28T05:34:41.963Z,110.90
2023-03-28T05:37:10.453Z,103.45
2023-03-28T05:39:46.022Z,109.25
2023-03-28T05:42:13.221Z,108.35
2023-03-28T05:44:40.623Z,108.80
2023-03-28T05:47:26.200Z,109.82
2023-03-28T05:49:54.927Z,107.63
2023-03-28T05:52:22.277Z,109.75
2023-03-28T05:54:51.928Z,105.32
2023-03-28T05:57:21.533Z,113.75
2023-03-28T05:59:49.412Z,106.80
2023-03-28T06:02:20.541Z,112.88
2023-03-28T06:04:47.631Z,111.38
2023-03-28T06:07:14.718Z,113.00
2023-03-28T06:09:42.164Z,111.63
2023-03-28T06:12:11.845Z,111.82
2023-03-28T06:14:44.379Z,116.65
2023-03-28T06:17:22.097Z,116.10
2023-03-28T06:19:51.996Z,114.43
2023-03-28T06:22:20.025Z,108.43
2023-03-28T06:24:52.582Z,110.75
2023-03-28T06:27:27.291Z,108.88
2023-03-28T06:29:55.165Z,111.28
2023-03-28T06:32:22.292Z,113.88
2023-03-28T06:34:49.222Z,112.05
2023-03-28T06:37:16.118Z,117.40
2023-03-28T06:39:56.984Z,98.00
2023-03-28T06:42:23.922Z,109.55
2023-03-28T06:44:59.432Z,113.35
2023-03-28T06:47:31.754Z,112.13
2023-03-28T06:49:58.584Z,106.90
2023-03-28T06:52:33.176Z,110.63
2023-03-28T06:55:01.592Z,85.90
2023-03-28T06:57:28.408Z,87.53
2023-03-28T07:00:09.981Z,89.60
2023-03-28T07:02:56.823Z,88.28
2023-03-28T07:05:23.781Z,87.78
2023-03-28T07:07:50.854Z,82.03
2023-03-28T07:10:17.828Z,81.05
2023-03-28T07:12:44.914Z,81.97
2023-03-28T07:15:13.428Z,81.25
2023-03-28T07:17:40.468Z,80.25
2023-03-28T07:20:08.150Z,80.45
2023-03-28T07:22:35.479Z,82.55
2023-03-28T07:25:02.327Z,80.82
2023-03-28T07:27:29.273Z,77.63
2023-03-28T07:29:56.104Z,80.50
2023-03-28T07:32:24.311Z,85.80
2023-03-28T07:34:51.391Z,81.35
2023-03-28T07:37:22.676Z,82.55
2023-03-28T07:39:57.216Z,79.47
2023-03-28T07:42:27.031Z,81.68
2023-03-28T07:44:55.078Z,82.47
2023-03-28T07:47:22.411Z,80.70
2023-03-28T07:49:51.231Z,80.05
2023-03-28T07:52:18.219Z,79.53
2023-03-28T07:54:45.120Z,77.60
2023-03-28T07:57:12.058Z,77.85
2023-03-28T07:59:57.973Z,76.68
2023-03-28T08:02:25.761Z,77.97
2023-03-28T08:04:54.144Z,77.47
2023-03-28T08:07:25.757Z,79.03
2023-03-28T08:09:55.224Z,79.47
2023-03-28T08:12:26.618Z,77.60
2023-03-28T08:14:53.628Z,103.45
2023-03-28T08:17:23.944Z,74.45
2023-03-28T08:19:52.237Z,80.10
2023-03-28T08:22:29.058Z,78.22
2023-03-28T08:25:15.958Z,77.40
2023-03-28T08:27:43.937Z,78.97
2023-03-28T08:30:12.738Z,77.28
2023-03-28T08:32:49.654Z,76.72
2023-03-28T08:35:16.744Z,78.65
2023-03-28T08:37:45.792Z,80.47
2023-03-28T08:40:16.258Z,77.10
2023-03-28T08:42:57.116Z,75.78
2023-03-28T08:45:41.004Z,76.60
2023-03-28T08:48:17.981Z,76.22
2023-03-28T08:50:50.027Z,79.22
2023-03-28T08:53:26.767Z,77.35
2023-03-28T08:55:54.999Z,77.50
2023-03-28T08:58:23.566Z,78.32
2023-03-28T09:00:52.133Z,76.18
2023-03-28T09:03:21.830Z,78.35
2023-03-28T09:05:58.449Z,80.03
2023-03-28T09:08:49.866Z,77.10
2023-03-28T09:11:32.229Z,77.28
2023-03-28T09:16:43.722Z,74.45
2023-03-28T09:19:51.857Z,73.40
2023-03-28T09:23:13.763Z,76.32
2023-03-28T09:26:06.055Z,78.55
2023-03-28T09:28:41.800Z,77.13
2023-03-28T09:31:13.249Z,76.78
2023-03-28T09:33:43.192Z,78.25
2023-03-28T09:36:19.232Z,77.60
2023-03-28T09:38:51.200Z,78.30
2023-03-28T09:41:26.753Z,76.47
2023-03-28T09:44:15.008Z,74.60
2023-03-28T09:47:06.327Z,74.05
2023-03-28T09:49:41.719Z,78.22
2023-03-28T09:52:16.282Z,77.45
2023-03-28T09:54:43.517Z,73.30
2023-03-28T09:57:11.981Z,76.10
2023-03-28T09:59:47.787Z,76.40
2023-03-28T10:02:28.559Z,76.85
2023-03-28T10:04:58.388Z,76.28
2023-03-28T10:07:32.423Z,76.73
2023-03-28T10:10:21.838Z,77.15
2023-03-28T10:13:02.239Z,74.03
2023-03-28T10:15:33.272Z,78.18
2023-03-28T10:18:31.299Z,73.50
2023-03-28T10:21:26.581Z,79.40
2023-03-28T10:24:16.590Z,74.93
2023-03-28T10:26:49.957Z,74.38
2023-03-28T10:29:18.424Z,73.93
2023-03-28T10:31:49.180Z,75.50
2023-03-28T10:34:39.038Z,76.60
2023-03-28T10:37:27.280Z,76.72
2023-03-28T10:40:26.379Z,75.47
2023-03-28T10:43:13.466Z,75.60
2023-03-28T10:46:01.220Z,75.45
2023-03-28T10:48:41.757Z,76.75
2023-03-28T10:51:18.659Z,74.53
2023-03-28T10:54:09.338Z,75.85
2023-03-28T10:56:41.576Z,77.65
2023-03-28T10:59:33.611Z,74.60
2023-03-28T11:02:23.705Z,77.57
2023-03-28T11:04:56.888Z,76.57
2023-03-28T11:07:33.208Z,75.70
2023-03-28T11:10:24.011Z,74.97
2023-03-28T11:13:26.549Z,77.50
2023-03-28T11:15:59.292Z,73.43
2023-03-28T11:18:47.008Z,75.07
2023-03-28T11:21:28.343Z,74.72
2023-03-28T11:24:09.253Z,76.28
2023-03-28T11:27:04.978Z,74.38
2023-03-28T11:30:02.358Z,72.90
2023-03-28T11:32:41.598Z,75.45
2023-03-28T11:35:17.759Z,75.95
2023-03-28T11:37:55.259Z,75.40
2023-03-28T11:40:28.206Z,75.47
2023-03-28T11:43:05.290Z,77.20
2023-03-28T11:45:50.281Z,76.65
2023-03-28T11:48:26.396Z,77.13
2023-03-28T11:51:02.802Z,77.68
2023-03-28T11:53:53.829Z,75.85
2023-03-28T11:56:29.703Z,77.68
2023-03-28T11:59:07.614Z,75.68
2023-03-28T12:01:41.597Z,74.72
2023-03-28T12:04:14.632Z,78.35
2023-03-28T12:06:59.567Z,76.20
2023-03-28T12:09:36.575Z,75.03
2023-03-28T12:12:11.722Z,76.68
2023-03-28T12:14:51.004Z,74.85
2023-03-28T12:17:44.646Z,75.53
2023-03-28T12:20:15.839Z,77.82
2023-03-28T12:22:50.472Z,78.20
2023-03-28T12:25:31.325Z,75.47
2023-03-28T12:28:10.250Z,76.53
2023-03-28T12:30:43.067Z,78.70
2023-03-28T12:33:21.441Z,76.90
2023-03-28T12:36:07.656Z,87.53
2023-03-28T12:38:40.505Z,78.78
2023-03-28T12:41:25.563Z,78.22
2023-03-28T12:43:58.229Z,78.25
2023-03-28T12:46:38.427Z,78.00
2023-03-28T12:49:12.394Z,79.45
2023-03-28T12:51:46.620Z,81.05
2023-03-28T12:54:26.487Z,80.60
2023-03-28T12:57:10.982Z,80.78
2023-03-28T13:00:14.896Z,83.85
2023-03-28T13:03:18.339Z,76.97
2023-03-28T13:05:49.876Z,78.80
2023-03-28T13:08:24.350Z,76.95
2023-03-28T13:11:07.832Z,81.93
2023-03-28T13:13:44.889Z,82.38
2023-03-28T13:16:15.374Z,80.13
2023-03-28T13:19:03.625Z,78.80
2023-03-28T13:21:45.052Z,78.65
2023-03-28T13:24:30.842Z,79.82
2023-03-28T13:27:00.775Z,81.55
2023-03-28T13:29:44.891Z,77.65
2023-03-28T13:32:14.838Z,79.53
2023-03-28T13:34:47.982Z,77.68
2023-03-28T13:37:23.096Z,77.88
2023-03-28T13:39:51.547Z,78.07
2023-03-28T13:42:31.858Z,76.90
2023-03-28T13:45:03.434Z,76.82
2023-03-28T13:47:34.677Z,78.63
2023-03-28T13:50:08.401Z,76.85
2023-03-28T13:52:35.590Z,79.90
2023-03-28T13:55:14.809Z,75.95
2023-03-28T13:57:43.614Z,78.82
2023-03-28T14:00:16.442Z,77.85
2023-03-28T14:02:46.006Z,78.97
2023-03-28T14:05:19.706Z,75.50
2023-03-28T14:07:47.093Z,80.63
2023-03-28T14:10:21.944Z,77.88
2023-03-28T14:12:53.034Z,76.68
2023-03-28T14:15:24.530Z,78.50
2023-03-28T14:20:19.010Z,75.82
2023-03-28T14:22:59.966Z,75.82
2023-03-28T14:25:28.628Z,76.93
2023-03-28T14:27:57.366Z,77.75
2023-03-28T14:30:26.614Z,77.80
2023-03-28T14:32:58.999Z,77.95
2023-03-28T14:35:28.245Z,84.55
2023-03-28T14:37:57.400Z,79.47
2023-03-28T14:40:31.646Z,79.47
2023-03-28T14:43:04.211Z,74.75
2023-03-28T14:45:34.011Z,76.22
2023-03-28T14:48:01.121Z,77.43
2023-03-28T14:50:33.012Z,78.40
2023-03-28T14:53:05.797Z,79.65
2023-03-28T14:55:33.885Z,79.68
2023-03-28T14:58:04.879Z,81.05
2023-03-28T15:00:37.684Z,82.15
2023-03-28T15:03:06.972Z,79.60
2023-03-28T15:05:35.195Z,79.00
2023-03-28T15:08:03.139Z,78.68
2023-03-28T15:10:31.043Z,78.45
2023-03-28T15:13:05.438Z,77.28
2023-03-28T15:15:35.730Z,76.95
2023-03-28T15:18:06.771Z,73.97
2023-03-28T15:20:35.858Z,79.97
2023-03-28T15:23:05.783Z,77.95
2023-03-28T15:25:34.482Z,79.78
2023-03-28T15:28:06.667Z,79.50
2023-03-28T15:30:36.145Z,76.63
2023-03-28T15:33:05.408Z,78.05
2023-03-28T15:35:38.309Z,77.53
2023-03-28T15:38:08.062Z,77.63
2023-03-28T15:40:40.328Z,78.10
2023-03-28T15:43:27.865Z,77.22
2023-03-28T15:45:56.978Z,76.75
2023-03-28T15:48:25.248Z,76.65
2023-03-28T15:50:53.607Z,80.90
2023-03-28T15:53:25.956Z,78.88
2023-03-28T15:55:52.937Z,77.35
2023-03-28T15:58:23.278Z,76.80
2023-03-28T16:00:52.787Z,76.40
2023-03-28T16:03:32.880Z,75.90
2023-03-28T16:06:23.069Z,82.00
2023-03-28T16:09:15.585Z,77.25
2023-03-28T16:11:43.036Z,80.07
2023-03-28T16:14:31.528Z,77.15
2023-03-28T16:17:22.334Z,84.07
2023-03-28T16:19:57.848Z,77.78
2023-03-28T16:22:25.667Z,79.30
2023-03-28T16:24:53.657Z,78.63
2023-03-28T16:27:22.044Z,80.35
2023-03-28T16:29:50.469Z,81.00
2023-03-28T16:32:17.361Z,76.38
2023-03-28T16:34:44.808Z,81.53
2023-03-28T16:37:11.644Z,79.85
2023-03-28T16:39:38.728Z,79.43
2023-03-28T16:42:06.203Z,81.45
2023-03-28T16:44:33.508Z,80.13
2023-03-28T16:47:03.055Z,80.60
2023-03-28T16:49:30.322Z,79.45
2023-03-28T16:51:57.229Z,86.75
2023-03-28T16:54:24.574Z,76.90
2023-03-28T16:56:51.967Z,83.22
2023-03-28T16:59:20.243Z,81.72
2023-03-28T17:01:47.723Z,79.85
2023-03-28T17:04:16.179Z,79.00
2023-03-28T17:06:43.072Z,83.00
2023-03-28T17:09:10.484Z,83.53
2023-03-28T17:11:37.388Z,78.05
2023-03-28T17:14:04.288Z,79.07
2023-03-28T17:16:31.520Z,80.18
2023-03-28T17:18:58.509Z,86.57
2023-03-28T17:21:26.853Z,79.13
2023-03-28T17:23:55.379Z,81.13
2023-03-28T17:26:22.211Z,83.38
2023-03-28T17:28:50.898Z,79.68
2023-03-28T17:31:20.006Z,82.15
2023-03-28T17:33:47.625Z,82.35
2023-03-28T17:36:21.543Z,80.45
2023-03-28T17:38:51.833Z,80.47
2023-03-28T17:41:19.522Z,81.88
2023-03-28T17:43:46.757Z,86.28
2023-03-28T17:46:13.712Z,83.18
2023-03-28T17:48:41.349Z,78.85
2023-03-28T17:51:10.150Z,80.30
2023-03-28T17:53:39.942Z,79.90
2023-03-28T17:56:08.877Z,78.85
2023-03-28T17:58:36.574Z,83.93
2023-03-28T18:01:04.233Z,78.50
2023-03-28T18:03:31.215Z,81.05
2023-03-28T18:06:15.071Z,81.60
2023-03-28T18:08:44.784Z,80.25
2023-03-28T18:11:15.657Z,82.88
2023-03-28T18:13:42.930Z,86.10
2023-03-28T18:16:13.376Z,83.40
2023-03-28T18:18:41.213Z,78.30
2023-03-28T18:21:08.556Z,79.28
2023-03-28T18:23:36.034Z,79.35
2023-03-28T18:26:03.154Z,83.97
2023-03-28T18:28:31.870Z,81.18
2023-03-28T18:31:06.682Z,82.88
2023-03-28T18:33:35.386Z,85.72
2023-03-28T18:36:02.463Z,81.50
2023-03-28T18:38:29.502Z,81.65
2023-03-28T18:40:56.434Z,85.63
2023-03-28T18:43:23.325Z,88.30
2023-03-28T18:45:55.107Z,97.90
2023-03-28T18:48:22.752Z,82.65
2023-03-28T18:50:49.703Z,81.70
2023-03-28T18:53:17.068Z,81.85
2023-03-28T18:55:43.869Z,82.85
2023-03-28T18:58:11.495Z,79.50
2023-03-28T19:00:38.745Z,82.72
2023-03-28T19:03:09.341Z,80.65
2023-03-28T19:05:37.238Z,78.90
2023-03-28T19:08:04.312Z,80.97
2023-03-28T19:10:31.469Z,83.13
2023-03-28T19:12:58.375Z,95.63
2023-03-28T19:15:25.761Z,78.07
2023-03-28T19:17:52.656Z,79.93
2023-03-28T19:20:20.832Z,80.28
2023-03-28T19:22:48.202Z,93.25
2023-03-28T19:25:16.162Z,80.45
2023-03-28T19:27:43.727Z,80.72
2023-03-28T19:30:11.204Z,78.38
2023-03-28T19:32:38.097Z,78.10
2023-03-28T19:35:05.942Z,79.07
2023-03-28T19:37:34.183Z,80.85
2023-03-28T19:40:01.338Z,80.03
2023-03-28T19:42:28.266Z,85.10
2023-03-28T19:44:55.245Z,81.03
2023-03-28T19:47:22.011Z,80.40
2023-03-28T19:49:49.324Z,83.10
2023-03-28T19:52:16.323Z,80.63
2023-03-28T19:54:44.628Z,96.15
2023-03-28T19:57:11.504Z,84.90
2023-03-28T19:59:41.398Z,81.63
2023-03-28T20:02:10.379Z,79.50
2023-03-28T20:04:37.225Z,81.70
2023-03-28T20:07:04.249Z,80.38
2023-03-28T20:09:32.509Z,79.60
2023-03-28T20:12:01.857Z,79.15
2023-03-28T20:14:28.667Z,79.82
2023-03-28T20:16:55.549Z,83.55
2023-03-28T20:19:23.163Z,82.25
2023-03-28T20:21:49.976Z,78.95
2023-03-28T20:24:18.157Z,83.80
2023-03-28T20:26:45.200Z,79.35
2023-03-28T20:29:13.836Z,80.28
2023-03-28T20:31:40.946Z,77.32
2023-03-28T20:34:07.997Z,78.90
2023-03-28T20:36:34.879Z,82.13
2023-03-28T20:39:02.522Z,81.22
2023-03-28T20:41:29.984Z,83.43
2023-03-28T20:44:03.229Z,82.40
2023-03-28T20:46:34.431Z,81.85
2023-03-28T20:49:01.449Z,83.78
2023-03-28T20:51:29.662Z,81.25
2023-03-28T20:53:58.649Z,81.15
2023-03-28T20:56:27.425Z,80.47
2023-03-28T20:58:54.872Z,80.72
2023-03-28T21:01:26.584Z,80.75
2023-03-28T21:03:56.781Z,79.82
2023-03-28T21:06:26.042Z,85.68
2023-03-28T21:08:54.311Z,87.57
2023-03-28T21:11:23.626Z,82.35
2023-03-28T21:13:50.907Z,87.07
2023-03-28T21:16:18.624Z,82.10
2023-03-28T21:18:46.796Z,78.90
2023-03-28T21:21:17.114Z,80.63
2023-03-28T21:23:45.079Z,81.75
2023-03-28T21:26:14.829Z,82.60
2023-03-28T21:28:41.684Z,81.10
2023-03-28T21:31:10.818Z,83.90
2023-03-28T21:33:38.405Z,80.07
2023-03-28T21:36:07.211Z,77.88
2023-03-28T21:38:36.090Z,82.70
2023-03-28T21:41:03.722Z,79.43
2023-03-28T21:43:30.812Z,82.15
2023-03-28T21:45:57.865Z,82.65
2023-03-28T21:48:24.858Z,84.20
2023-03-28T21:50:53.790Z,82.47
2023-03-28T21:53:21.789Z,89.75
2023-03-28T21:55:51.103Z,82.85
2023-03-28T21:58:18.088Z,79.85
2023-03-28T22:00:44.972Z,80.28
2023-03-28T22:03:12.131Z,79.22
2023-03-28T22:05:42.651Z,82.78
2023-03-28T22:08:12.165Z,79.75
2023-03-28T22:10:45.760Z,79.75
2023-03-28T22:13:14.558Z,78.60
2023-03-28T22:15:41.715Z,79.13
2023-03-28T22:18:12.077Z,80.47
2023-03-28T22:20:40.826Z,77.53
2023-03-28T22:23:08.974Z,78.00
2023-03-28T22:25:38.248Z,80.43
2023-03-28T22:28:07.301Z,77.90
2023-03-28T22:30:37.034Z,79.97
2023-03-28T22:33:04.264Z,82.68
2023-03-28T22:35:31.280Z,79.90
2023-03-28T22:37:58.199Z,79.10
2023-03-28T22:40:25.180Z,83.15
2023-03-28T22:42:54.135Z,80.75
2023-03-28T22:45:21.359Z,77.72
2023-03-28T22:47:50.217Z,81.70
2023-03-28T22:50:18.437Z,86.47
2023-03-28T22:52:46.165Z,80.95
2023-03-28T22:55:13.442Z,78.30
2023-03-28T22:57:41.978Z,82.93
2023-03-28T23:00:11.291Z,85.13
2023-03-28T23:02:38.378Z,83.25
2023-03-28T23:05:08.075Z,85.55
2023-03-28T23:07:36.237Z,86.25
2023-03-28T23:10:04.607Z,87.30
2023-03-28T23:12:31.744Z,85.10
2023-03-28T23:14:58.564Z,84.78
2023-03-28T23:17:26.361Z,88.25
2023-03-28T23:19:54.322Z,84.05
2023-03-28T23:22:23.636Z,87.40
2023-03-28T23:24:50.738Z,82.93
2023-03-28T23:27:18.122Z,91.65
2023-03-28T23:29:45.280Z,80.22
2023-03-28T23:32:12.135Z,87.43
2023-03-28T23:34:39.170Z,80.20
2023-03-28T23:37:07.125Z,84.95
2023-03-28T23:39:35.316Z,81.35
2023-03-28T23:42:02.209Z,85.28
2023-03-28T23:44:30.767Z,83.55
2023-03-28T23:46:57.664Z,81.40
2023-03-28T23:49:24.561Z,83.25
2023-03-28T23:51:51.446Z,80.47
2023-03-28T23:54:18.693Z,81.95
2023-03-28T23:56:47.402Z,80.68
2023-03-28T23:59:14.338Z,82.35
